sensor_id;sensor_type;location;lat;lon;timestamp;P1;durP1;ratioP1;P2;durP2;ratioP2
34184;SDS011;20454;48.100;11.776;2022-09-16T00:00:47;2.85;;;2.65;;
34184;SDS011;20454;48.100;11.776;2022-09-16T00:03:14;3.65;;;3.08;;
34184;SDS011;20454;48.100;11.776;2022-09-16T00:05:42;4.05;;;2.38;;
34184;SDS011;20454;48.100;11.776;2022-09-16T00:08:10;3.10;;;2.88;;
34184;SDS011;20454;48.100;11.776;2022-09-16T00:10:37;3.05;;;2.85;;
34184;SDS011;20454;48.100;11.776;2022-09-16T00:13:03;3.03;;;2.83;;
34184;SDS011;20454;48.100;11.776;2022-09-16T00:15:29;3.28;;;2.88;;
34184;SDS011;20454;48.100;11.776;2022-09-16T00:17:55;2.80;;;2.60;;
34184;SDS011;20454;48.100;11.776;2022-09-16T00:20:21;2.92;;;2.65;;
34184;SDS011;20454;48.100;11.776;2022-09-16T00:22:46;2.30;;;2.00;;
34184;SDS011;20454;48.100;11.776;2022-09-16T00:25:12;3.78;;;3.03;;
34184;SDS011;20454;48.100;11.776;2022-09-16T00:27:38;3.53;;;3.22;;
34184;SDS011;20454;48.100;11.776;2022-09-16T00:30:04;4.35;;;2.70;;
34184;SDS011;20454;48.100;11.776;2022-09-16T00:32:30;3.05;;;2.75;;
34184;SDS011;20454;48.100;11.776;2022-09-16T00:34:56;3.72;;;3.42;;
34184;SDS011;20454;48.100;11.776;2022-09-16T00:37:22;2.90;;;2.70;;
34184;SDS011;20454;48.100;11.776;2022-09-16T00:39:48;2.53;;;2.33;;
34184;SDS011;20454;48.100;11.776;2022-09-16T00:42:14;4.15;;;3.78;;
34184;SDS011;20454;48.100;11.776;2022-09-16T00:44:49;3.28;;;3.08;;
34184;SDS011;20454;48.100;11.776;2022-09-16T00:47:30;3.60;;;2.75;;
34184;SDS011;20454;48.100;11.776;2022-09-16T00:50:04;3.30;;;3.10;;
34184;SDS011;20454;48.100;11.776;2022-09-16T00:52:43;3.67;;;3.38;;
34184;SDS011;20454;48.100;11.776;2022-09-16T00:55:09;3.00;;;2.80;;
34184;SDS011;20454;48.100;11.776;2022-09-16T00:57:41;4.90;;;3.20;;
34184;SDS011;20454;48.100;11.776;2022-09-16T01:00:09;3.42;;;3.10;;
34184;SDS011;20454;48.100;11.776;2022-09-16T01:02:38;3.40;;;3.20;;
34184;SDS011;20454;48.100;11.776;2022-09-16T01:05:09;4.53;;;3.80;;
34184;SDS011;20454;48.100;11.776;2022-09-16T01:07:46;3.28;;;2.88;;
34184;SDS011;20454;48.100;11.776;2022-09-16T01:10:16;6.90;;;3.30;;
34184;SDS011;20454;48.100;11.776;2022-09-16T01:12:45;3.53;;;2.30;;
34184;SDS011;20454;48.100;11.776;2022-09-16T01:15:17;2.78;;;2.58;;
34184;SDS011;20454;48.100;11.776;2022-09-16T01:17:52;2.20;;;1.98;;
34184;SDS011;20454;48.100;11.776;2022-09-16T01:29:00;2.70;;;2.60;;
34184;SDS011;20454;48.100;11.776;2022-09-16T01:31:55;2.78;;;2.58;;
34184;SDS011;20454;48.100;11.776;2022-09-16T01:40:56;2.90;;;2.30;;
34184;SDS011;20454;48.100;11.776;2022-09-16T01:46:40;2.80;;;2.60;;
34184;SDS011;20454;48.100;11.776;2022-09-16T01:49:31;2.42;;;2.17;;
34184;SDS011;20454;48.100;11.776;2022-09-16T01:52:23;3.08;;;2.58;;
34184;SDS011;20454;48.100;11.776;2022-09-16T01:55:16;3.25;;;3.05;;
34184;SDS011;20454;48.100;11.776;2022-09-16T01:57:54;3.38;;;2.80;;
34184;SDS011;20454;48.100;11.776;2022-09-16T02:00:22;4.97;;;3.00;;
34184;SDS011;20454;48.100;11.776;2022-09-16T02:03:07;4.43;;;3.25;;
34184;SDS011;20454;48.100;11.776;2022-09-16T02:05:42;3.60;;;3.30;;
34184;SDS011;20454;48.100;11.776;2022-09-16T02:08:21;3.17;;;2.97;;
34184;SDS011;20454;48.100;11.776;2022-09-16T02:11:11;2.58;;;2.38;;
34184;SDS011;20454;48.100;11.776;2022-09-16T02:14:04;3.67;;;3.13;;
34184;SDS011;20454;48.100;11.776;2022-09-16T02:17:32;3.20;;;2.92;;
34184;SDS011;20454;48.100;11.776;2022-09-16T02:19:55;4.97;;;3.30;;
34184;SDS011;20454;48.100;11.776;2022-09-16T02:22:47;4.10;;;3.75;;
34184;SDS011;20454;48.100;11.776;2022-09-16T02:25:18;3.65;;;3.30;;
34184;SDS011;20454;48.100;11.776;2022-09-16T02:27:47;3.28;;;2.97;;
34184;SDS011;20454;48.100;11.776;2022-09-16T02:30:16;3.47;;;2.63;;
34184;SDS011;20454;48.100;11.776;2022-09-16T02:32:46;3.40;;;3.10;;
34184;SDS011;20454;48.100;11.776;2022-09-16T02:35:21;3.97;;;3.33;;
34184;SDS011;20454;48.100;11.776;2022-09-16T02:37:52;2.88;;;2.67;;
34184;SDS011;20454;48.100;11.776;2022-09-16T02:40:31;3.92;;;3.35;;
34184;SDS011;20454;48.100;11.776;2022-09-16T02:43:02;3.20;;;3.00;;
34184;SDS011;20454;48.100;11.776;2022-09-16T02:57:12;4.22;;;3.78;;
34184;SDS011;20454;48.100;11.776;2022-09-16T02:59:39;4.38;;;4.05;;
34184;SDS011;20454;48.100;11.776;2022-09-16T03:02:05;4.18;;;3.78;;
34184;SDS011;20454;48.100;11.776;2022-09-16T03:04:32;4.43;;;4.07;;
34184;SDS011;20454;48.100;11.776;2022-09-16T03:06:59;3.53;;;3.15;;
34184;SDS011;20454;48.100;11.776;2022-09-16T03:09:27;5.82;;;4.72;;
34184;SDS011;20454;48.100;11.776;2022-09-16T03:12:08;4.07;;;3.63;;
34184;SDS011;20454;48.100;11.776;2022-09-16T03:14:58;3.42;;;3.15;;
34184;SDS011;20454;48.100;11.776;2022-09-16T03:23:41;2.83;;;2.63;;
34184;SDS011;20454;48.100;11.776;2022-09-16T03:29:00;3.60;;;3.35;;
34184;SDS011;20454;48.100;11.776;2022-09-16T03:32:11;4.28;;;3.97;;
34184;SDS011;20454;48.100;11.776;2022-09-16T03:37:45;4.50;;;4.05;;
34184;SDS011;20454;48.100;11.776;2022-09-16T03:40:12;4.32;;;3.90;;
34184;SDS011;20454;48.100;11.776;2022-09-16T03:42:43;4.13;;;3.65;;
34184;SDS011;20454;48.100;11.776;2022-09-16T03:45:14;4.90;;;3.67;;
34184;SDS011;20454;48.100;11.776;2022-09-16T03:47:44;3.95;;;3.35;;
34184;SDS011;20454;48.100;11.776;2022-09-16T03:50:11;4.60;;;4.22;;
34184;SDS011;20454;48.100;11.776;2022-09-16T03:52:38;5.85;;;4.00;;
34184;SDS011;20454;48.100;11.776;2022-09-16T03:55:04;3.17;;;2.85;;
34184;SDS011;20454;48.100;11.776;2022-09-16T03:57:31;3.92;;;3.58;;
34184;SDS011;20454;48.100;11.776;2022-09-16T03:59:57;4.65;;;4.25;;
34184;SDS011;20454;48.100;11.776;2022-09-16T05:33:02;4.07;;;3.78;;
34184;SDS011;20454;48.100;11.776;2022-09-16T05:35:28;6.38;;;5.78;;
34184;SDS011;20454;48.100;11.776;2022-09-16T05:37:54;5.95;;;5.47;;
34184;SDS011;20454;48.100;11.776;2022-09-16T05:40:19;7.10;;;6.10;;
34184;SDS011;20454;48.100;11.776;2022-09-16T05:42:50;6.32;;;5.45;;
34184;SDS011;20454;48.100;11.776;2022-09-16T05:45:15;7.80;;;6.13;;
34184;SDS011;20454;48.100;11.776;2022-09-16T05:47:45;6.28;;;5.78;;
34184;SDS011;20454;48.100;11.776;2022-09-16T05:50:12;5.63;;;5.05;;
34184;SDS011;20454;48.100;11.776;2022-09-16T05:52:38;6.97;;;6.28;;
34184;SDS011;20454;48.100;11.776;2022-09-16T05:55:04;4.68;;;4.28;;
34184;SDS011;20454;48.100;11.776;2022-09-16T05:57:30;5.05;;;4.65;;
34184;SDS011;20454;48.100;11.776;2022-09-16T05:59:56;4.00;;;3.70;;
34184;SDS011;20454;48.100;11.776;2022-09-16T06:02:22;5.05;;;4.65;;
34184;SDS011;20454;48.100;11.776;2022-09-16T06:04:47;8.27;;;6.65;;
34184;SDS011;20454;48.100;11.776;2022-09-16T06:07:13;4.65;;;4.00;;
34184;SDS011;20454;48.100;11.776;2022-09-16T06:09:41;11.93;;;5.18;;
34184;SDS011;20454;48.100;11.776;2022-09-16T06:12:07;6.43;;;5.93;;
34184;SDS011;20454;48.100;11.776;2022-09-16T06:14:34;5.97;;;5.32;;
34184;SDS011;20454;48.100;11.776;2022-09-16T06:17:00;8.52;;;6.28;;
34184;SDS011;20454;48.100;11.776;2022-09-16T06:19:27;6.50;;;5.90;;
34184;SDS011;20454;48.100;11.776;2022-09-16T06:21:52;11.27;;;6.72;;
34184;SDS011;20454;48.100;11.776;2022-09-16T06:24:19;6.35;;;5.75;;
34184;SDS011;20454;48.100;11.776;2022-09-16T06:26:45;6.53;;;6.03;;
34184;SDS011;20454;48.100;11.776;2022-09-16T06:29:13;8.65;;;4.68;;
34184;SDS011;20454;48.100;11.776;2022-09-16T06:31:40;7.90;;;6.35;;
34184;SDS011;20454;48.100;11.776;2022-09-16T06:34:07;5.13;;;4.72;;
34184;SDS011;20454;48.100;11.776;2022-09-16T06:36:38;10.52;;;7.90;;
34184;SDS011;20454;48.100;11.776;2022-09-16T06:39:04;8.35;;;6.38;;
34184;SDS011;20454;48.100;11.776;2022-09-16T06:41:31;5.50;;;5.07;;
34184;SDS011;20454;48.100;11.776;2022-09-16T06:43:58;5.25;;;4.82;;
34184;SDS011;20454;48.100;11.776;2022-09-16T06:46:25;7.30;;;6.70;;
34184;SDS011;20454;48.100;11.776;2022-09-16T06:48:53;6.20;;;5.60;;
34184;SDS011;20454;48.100;11.776;2022-09-16T06:51:22;5.45;;;4.90;;
34184;SDS011;20454;48.100;11.776;2022-09-16T06:53:53;4.47;;;4.18;;
34184;SDS011;20454;48.100;11.776;2022-09-16T06:56:23;6.57;;;6.07;;
34184;SDS011;20454;48.100;11.776;2022-09-16T06:58:50;6.50;;;5.90;;
34184;SDS011;20454;48.100;11.776;2022-09-16T07:01:23;8.27;;;5.00;;
34184;SDS011;20454;48.100;11.776;2022-09-16T07:03:52;4.63;;;4.22;;
34184;SDS011;20454;48.100;11.776;2022-09-16T07:06:20;5.50;;;5.03;;
34184;SDS011;20454;48.100;11.776;2022-09-16T07:08:48;5.53;;;5.03;;
34184;SDS011;20454;48.100;11.776;2022-09-16T07:11:15;5.30;;;4.90;;
34184;SDS011;20454;48.100;11.776;2022-09-16T07:13:43;5.78;;;5.35;;
34184;SDS011;20454;48.100;11.776;2022-09-16T07:16:11;5.20;;;4.70;;
34184;SDS011;20454;48.100;11.776;2022-09-16T07:18:43;9.27;;;6.43;;
34184;SDS011;20454;48.100;11.776;2022-09-16T07:21:14;7.68;;;6.22;;
34184;SDS011;20454;48.100;11.776;2022-09-16T07:23:42;13.07;;;6.63;;
34184;SDS011;20454;48.100;11.776;2022-09-16T07:26:19;7.57;;;6.32;;
34184;SDS011;20454;48.100;11.776;2022-09-16T07:28:50;5.70;;;5.20;;
34184;SDS011;20454;48.100;11.776;2022-09-16T07:31:17;4.80;;;4.22;;
34184;SDS011;20454;48.100;11.776;2022-09-16T07:33:50;4.57;;;4.20;;
34184;SDS011;20454;48.100;11.776;2022-09-16T07:36:19;5.97;;;5.38;;
34184;SDS011;20454;48.100;11.776;2022-09-16T07:38:48;6.63;;;5.97;;
34184;SDS011;20454;48.100;11.776;2022-09-16T07:41:22;5.82;;;5.03;;
34184;SDS011;20454;48.100;11.776;2022-09-16T07:43:55;6.63;;;6.13;;
34184;SDS011;20454;48.100;11.776;2022-09-16T07:46:23;5.57;;;5.07;;
34184;SDS011;20454;48.100;11.776;2022-09-16T07:48:53;8.02;;;7.10;;
34184;SDS011;20454;48.100;11.776;2022-09-16T07:51:20;7.75;;;6.88;;
34184;SDS011;20454;48.100;11.776;2022-09-16T07:53:52;8.43;;;7.63;;
34184;SDS011;20454;48.100;11.776;2022-09-16T07:56:31;7.88;;;6.70;;
34184;SDS011;20454;48.100;11.776;2022-09-16T07:59:01;6.40;;;5.75;;
34184;SDS011;20454;48.100;11.776;2022-09-16T08:01:30;8.02;;;7.22;;
34184;SDS011;20454;48.100;11.776;2022-09-16T08:03:56;8.70;;;6.78;;
34184;SDS011;20454;48.100;11.776;2022-09-16T08:06:25;10.30;;;6.80;;
34184;SDS011;20454;48.100;11.776;2022-09-16T08:08:54;12.43;;;8.00;;
34184;SDS011;20454;48.100;11.776;2022-09-16T08:11:23;8.85;;;7.10;;
34184;SDS011;20454;48.100;11.776;2022-09-16T08:13:51;7.53;;;6.90;;
34184;SDS011;20454;48.100;11.776;2022-09-16T08:16:18;6.38;;;5.88;;
34184;SDS011;20454;48.100;11.776;2022-09-16T08:18:46;6.72;;;6.22;;
34184;SDS011;20454;48.100;11.776;2022-09-16T08:21:15;7.28;;;6.30;;
34184;SDS011;20454;48.100;11.776;2022-09-16T08:23:50;6.65;;;6.15;;
34184;SDS011;20454;48.100;11.776;2022-09-16T08:26:17;7.25;;;6.53;;
34184;SDS011;20454;48.100;11.776;2022-09-16T08:28:44;9.18;;;7.05;;
34184;SDS011;20454;48.100;11.776;2022-09-16T08:31:12;7.55;;;6.78;;
34184;SDS011;20454;48.100;11.776;2022-09-16T08:33:39;11.52;;;7.32;;
34184;SDS011;20454;48.100;11.776;2022-09-16T08:36:08;7.50;;;6.88;;
34184;SDS011;20454;48.100;11.776;2022-09-16T08:38:44;8.88;;;7.93;;
34184;SDS011;20454;48.100;11.776;2022-09-16T08:44:39;9.05;;;7.53;;
34184;SDS011;20454;48.100;11.776;2022-09-16T08:50:09;8.10;;;7.38;;
34184;SDS011;20454;48.100;11.776;2022-09-16T08:52:42;10.77;;;8.52;;
34184;SDS011;20454;48.100;11.776;2022-09-16T08:55:11;14.75;;;8.07;;
34184;SDS011;20454;48.100;11.776;2022-09-16T08:57:53;6.88;;;6.25;;
34184;SDS011;20454;48.100;11.776;2022-09-16T09:00:23;6.85;;;5.82;;
34184;SDS011;20454;48.100;11.776;2022-09-16T09:05:54;7.22;;;6.63;;
34184;SDS011;20454;48.100;11.776;2022-09-16T09:19:31;8.57;;;7.47;;
34184;SDS011;20454;48.100;11.776;2022-09-16T09:28:34;6.10;;;5.50;;
34184;SDS011;20454;48.100;11.776;2022-09-16T09:31:39;7.25;;;5.65;;
34184;SDS011;20454;48.100;11.776;2022-09-16T09:40:25;7.10;;;6.47;;
34184;SDS011;20454;48.100;11.776;2022-09-16T09:49:08;6.70;;;4.93;;
34184;SDS011;20454;48.100;11.776;2022-09-16T09:51:50;6.78;;;5.22;;
34184;SDS011;20454;48.100;11.776;2022-09-16T09:54:43;5.90;;;5.40;;
34184;SDS011;20454;48.100;11.776;2022-09-16T10:00:03;6.35;;;5.72;;
34184;SDS011;20454;48.100;11.776;2022-09-16T10:02:38;7.97;;;7.22;;
34184;SDS011;20454;48.100;11.776;2022-09-16T10:05:27;12.73;;;11.57;;
34184;SDS011;20454;48.100;11.776;2022-09-16T10:07:54;12.05;;;10.90;;
34184;SDS011;20454;48.100;11.776;2022-09-16T10:10:30;9.05;;;8.35;;
34184;SDS011;20454;48.100;11.776;2022-09-16T10:13:11;7.20;;;6.60;;
34184;SDS011;20454;48.100;11.776;2022-09-16T10:15:37;7.15;;;6.53;;
34184;SDS011;20454;48.100;11.776;2022-09-16T10:18:09;7.85;;;5.47;;
34184;SDS011;20454;48.100;11.776;2022-09-16T10:23:32;7.57;;;6.80;;
34184;SDS011;20454;48.100;11.776;2022-09-16T10:26:19;7.28;;;6.32;;
34184;SDS011;20454;48.100;11.776;2022-09-16T10:28:57;7.43;;;6.82;;
34184;SDS011;20454;48.100;11.776;2022-09-16T10:31:37;7.10;;;6.38;;
34184;SDS011;20454;48.100;11.776;2022-09-16T10:34:04;6.75;;;6.20;;
34184;SDS011;20454;48.100;11.776;2022-09-16T10:37:04;7.13;;;6.55;;
34184;SDS011;20454;48.100;11.776;2022-09-16T10:39:53;7.00;;;6.40;;
34184;SDS011;20454;48.100;11.776;2022-09-16T10:42:24;7.70;;;6.07;;
34184;SDS011;20454;48.100;11.776;2022-09-16T10:44:53;7.50;;;6.78;;
34184;SDS011;20454;48.100;11.776;2022-09-16T10:47:39;8.25;;;6.97;;
34184;SDS011;20454;48.100;11.776;2022-09-16T10:50:16;7.05;;;6.22;;
34184;SDS011;20454;48.100;11.776;2022-09-16T10:52:44;6.90;;;6.30;;
34184;SDS011;20454;48.100;11.776;2022-09-16T10:57:43;8.45;;;6.47;;
34184;SDS011;20454;48.100;11.776;2022-09-16T11:00:15;9.30;;;7.28;;
34184;SDS011;20454;48.100;11.776;2022-09-16T11:05:50;10.40;;;8.77;;
34184;SDS011;20454;48.100;11.776;2022-09-16T11:18:00;8.70;;;7.47;;
34184;SDS011;20454;48.100;11.776;2022-09-16T11:30:16;9.35;;;8.48;;
34184;SDS011;20454;48.100;11.776;2022-09-16T11:39:20;8.90;;;7.60;;
34184;SDS011;20454;48.100;11.776;2022-09-16T12:13:40;5.53;;;4.93;;
34184;SDS011;20454;48.100;11.776;2022-09-16T12:16:26;4.32;;;3.80;;
34184;SDS011;20454;48.100;11.776;2022-09-16T12:19:09;6.25;;;4.13;;
34184;SDS011;20454;48.100;11.776;2022-09-16T12:24:36;4.05;;;3.67;;
34184;SDS011;20454;48.100;11.776;2022-09-16T16:00:10;3.03;;;2.83;;
34184;SDS011;20454;48.100;11.776;2022-09-16T16:02:44;3.03;;;2.75;;
34184;SDS011;20454;48.100;11.776;2022-09-16T16:05:37;3.00;;;2.58;;
34184;SDS011;20454;48.100;11.776;2022-09-16T16:08:35;3.20;;;2.65;;
34184;SDS011;20454;48.100;11.776;2022-09-16T16:11:09;3.63;;;2.90;;
34184;SDS011;20454;48.100;11.776;2022-09-16T16:16:15;5.05;;;3.28;;
34184;SDS011;20454;48.100;11.776;2022-09-16T16:18:42;4.07;;;3.78;;
34184;SDS011;20454;48.100;11.776;2022-09-16T16:21:11;6.38;;;5.07;;
34184;SDS011;20454;48.100;11.776;2022-09-16T16:23:39;3.58;;;3.28;;
34184;SDS011;20454;48.100;11.776;2022-09-16T16:26:07;4.25;;;3.85;;
34184;SDS011;20454;48.100;11.776;2022-09-16T16:28:34;4.20;;;3.80;;
34184;SDS011;20454;48.100;11.776;2022-09-16T16:31:13;2.90;;;2.70;;
34184;SDS011;20454;48.100;11.776;2022-09-16T16:33:42;4.10;;;3.70;;
34184;SDS011;20454;48.100;11.776;2022-09-16T16:36:10;8.57;;;7.75;;
34184;SDS011;20454;48.100;11.776;2022-09-16T16:38:41;7.07;;;6.47;;
34184;SDS011;20454;48.100;11.776;2022-09-16T16:41:07;6.47;;;3.95;;
34184;SDS011;20454;48.100;11.776;2022-09-16T16:43:36;4.30;;;3.70;;
34184;SDS011;20454;48.100;11.776;2022-09-16T16:46:02;3.92;;;3.33;;
34184;SDS011;20454;48.100;11.776;2022-09-16T16:48:28;3.17;;;2.88;;
34184;SDS011;20454;48.100;11.776;2022-09-16T16:50:55;2.92;;;2.72;;
34184;SDS011;20454;48.100;11.776;2022-09-16T16:53:27;3.15;;;2.67;;
34184;SDS011;20454;48.100;11.776;2022-09-16T16:55:53;2.80;;;2.13;;
34184;SDS011;20454;48.100;11.776;2022-09-16T16:58:28;2.80;;;2.60;;
34184;SDS011;20454;48.100;11.776;2022-09-16T17:00:55;2.60;;;2.25;;
34184;SDS011;20454;48.100;11.776;2022-09-16T17:03:21;8.77;;;6.20;;
34184;SDS011;20454;48.100;11.776;2022-09-16T17:05:47;5.22;;;4.72;;
34184;SDS011;20454;48.100;11.776;2022-09-16T17:08:13;4.55;;;4.13;;
34184;SDS011;20454;48.100;11.776;2022-09-16T17:10:38;5.35;;;4.95;;
34184;SDS011;20454;48.100;11.776;2022-09-16T17:13:07;4.60;;;4.30;;
34184;SDS011;20454;48.100;11.776;2022-09-16T17:15:33;7.35;;;5.25;;
34184;SDS011;20454;48.100;11.776;2022-09-16T17:17:59;3.97;;;3.67;;
34184;SDS011;20454;48.100;11.776;2022-09-16T17:20:28;4.82;;;4.25;;
34184;SDS011;20454;48.100;11.776;2022-09-16T17:22:57;7.75;;;7.15;;
34184;SDS011;20454;48.100;11.776;2022-09-16T17:25:22;8.35;;;7.47;;
34184;SDS011;20454;48.100;11.776;2022-09-16T17:27:48;7.38;;;5.22;;
34184;SDS011;20454;48.100;11.776;2022-09-16T17:30:14;8.07;;;6.40;;
34184;SDS011;20454;48.100;11.776;2022-09-16T17:32:40;6.90;;;6.40;;
34184;SDS011;20454;48.100;11.776;2022-09-16T17:35:06;12.02;;;10.80;;
34184;SDS011;20454;48.100;11.776;2022-09-16T17:37:33;5.53;;;5.03;;
34184;SDS011;20454;48.100;11.776;2022-09-16T17:39:59;4.75;;;4.35;;
34184;SDS011;20454;48.100;11.776;2022-09-16T17:42:26;4.63;;;4.32;;
34184;SDS011;20454;48.100;11.776;2022-09-16T17:44:52;7.47;;;4.30;;
34184;SDS011;20454;48.100;11.776;2022-09-16T17:47:17;7.68;;;5.03;;
34184;SDS011;20454;48.100;11.776;2022-09-16T19:36:39;4.25;;;3.95;;
34184;SDS011;20454;48.100;11.776;2022-09-16T19:39:07;5.28;;;3.83;;
34184;SDS011;20454;48.100;11.776;2022-09-16T19:41:34;5.57;;;4.55;;
34184;SDS011;20454;48.100;11.776;2022-09-16T19:44:03;4.15;;;3.63;;
34184;SDS011;20454;48.100;11.776;2022-09-16T19:46:33;4.70;;;4.13;;
34184;SDS011;20454;48.100;11.776;2022-09-16T19:49:01;4.60;;;4.25;;
34184;SDS011;20454;48.100;11.776;2022-09-16T19:51:27;5.20;;;4.60;;
34184;SDS011;20454;48.100;11.776;2022-09-16T19:53:53;8.55;;;4.00;;
34184;SDS011;20454;48.100;11.776;2022-09-16T19:56:40;3.97;;;3.67;;
34184;SDS011;20454;48.100;11.776;2022-09-16T19:59:05;4.50;;;4.10;;
34184;SDS011;20454;48.100;11.776;2022-09-16T20:01:33;4.05;;;3.75;;
34184;SDS011;20454;48.100;11.776;2022-09-16T20:04:01;4.68;;;4.28;;
34184;SDS011;20454;48.100;11.776;2022-09-16T20:06:33;4.88;;;4.47;;
34184;SDS011;20454;48.100;11.776;2022-09-16T20:09:06;7.53;;;6.82;;
34184;SDS011;20454;48.100;11.776;2022-09-16T20:11:38;5.82;;;5.30;;
34184;SDS011;20454;48.100;11.776;2022-09-16T20:14:09;6.25;;;5.75;;
34184;SDS011;20454;48.100;11.776;2022-09-16T20:16:40;4.78;;;4.38;;
34184;SDS011;20454;48.100;11.776;2022-09-16T20:19:07;4.15;;;3.63;;
34184;SDS011;20454;48.100;11.776;2022-09-16T20:21:36;4.18;;;3.80;;
34184;SDS011;20454;48.100;11.776;2022-09-16T20:24:02;5.25;;;4.75;;
34184;SDS011;20454;48.100;11.776;2022-09-16T20:26:30;4.75;;;4.30;;
34184;SDS011;20454;48.100;11.776;2022-09-16T20:28:57;7.07;;;5.50;;
34184;SDS011;20454;48.100;11.776;2022-09-16T20:31:25;5.95;;;5.35;;
34184;SDS011;20454;48.100;11.776;2022-09-16T20:33:56;7.70;;;5.60;;
34184;SDS011;20454;48.100;11.776;2022-09-16T20:36:23;10.02;;;7.32;;
34184;SDS011;20454;48.100;11.776;2022-09-16T20:38:51;10.02;;;8.02;;
34184;SDS011;20454;48.100;11.776;2022-09-16T20:41:18;6.78;;;6.05;;
34184;SDS011;20454;48.100;11.776;2022-09-16T20:43:49;7.53;;;4.35;;
34184;SDS011;20454;48.100;11.776;2022-09-16T20:46:23;4.97;;;4.53;;
34184;SDS011;20454;48.100;11.776;2022-09-16T20:48:52;9.43;;;5.40;;
34184;SDS011;20454;48.100;11.776;2022-09-16T20:51:20;7.50;;;5.72;;
34184;SDS011;20454;48.100;11.776;2022-09-16T20:53:49;7.15;;;6.18;;
34184;SDS011;20454;48.100;11.776;2022-09-16T20:56:17;6.85;;;4.75;;
34184;SDS011;20454;48.100;11.776;2022-09-16T20:58:44;6.03;;;5.30;;
34184;SDS011;20454;48.100;11.776;2022-09-16T21:03:49;5.72;;;5.13;;
34184;SDS011;20454;48.100;11.776;2022-09-16T21:06:19;4.07;;;3.67;;
34184;SDS011;20454;48.100;11.776;2022-09-16T21:08:46;5.95;;;5.38;;
34184;SDS011;20454;48.100;11.776;2022-09-16T21:11:13;6.30;;;5.55;;
34184;SDS011;20454;48.100;11.776;2022-09-16T21:13:44;6.35;;;5.93;;
34184;SDS011;20454;48.100;11.776;2022-09-16T21:16:18;6.30;;;5.70;;
34184;SDS011;20454;48.100;11.776;2022-09-16T21:18:44;5.72;;;5.25;;
34184;SDS011;20454;48.100;11.776;2022-09-16T21:21:11;9.60;;;8.20;;
34184;SDS011;20454;48.100;11.776;2022-09-16T21:23:39;9.80;;;6.35;;
34184;SDS011;20454;48.100;11.776;2022-09-16T21:26:07;5.60;;;5.03;;
34184;SDS011;20454;48.100;11.776;2022-09-16T21:28:37;5.68;;;5.18;;
34184;SDS011;20454;48.100;11.776;2022-09-16T21:31:05;5.60;;;5.10;;
34184;SDS011;20454;48.100;11.776;2022-09-16T21:33:37;6.80;;;5.65;;
34184;SDS011;20454;48.100;11.776;2022-09-16T21:36:05;5.45;;;4.85;;
34184;SDS011;20454;48.100;11.776;2022-09-16T21:38:34;5.50;;;5.00;;
34184;SDS011;20454;48.100;11.776;2022-09-16T21:41:01;6.32;;;4.70;;
34184;SDS011;20454;48.100;11.776;2022-09-16T21:43:30;5.80;;;4.78;;
34184;SDS011;20454;48.100;11.776;2022-09-16T21:46:01;6.18;;;5.28;;
34184;SDS011;20454;48.100;11.776;2022-09-16T21:48:28;7.30;;;6.68;;
34184;SDS011;20454;48.100;11.776;2022-09-16T21:51:01;7.65;;;7.03;;
34184;SDS011;20454;48.100;11.776;2022-09-16T21:53:34;10.80;;;7.93;;
34184;SDS011;20454;48.100;11.776;2022-09-16T21:56:05;5.63;;;4.70;;
34184;SDS011;20454;48.100;11.776;2022-09-16T21:58:34;6.50;;;5.72;;
34184;SDS011;20454;48.100;11.776;2022-09-16T22:01:13;4.75;;;4.20;;
34184;SDS011;20454;48.100;11.776;2022-09-16T22:03:43;5.20;;;4.80;;
34184;SDS011;20454;48.100;11.776;2022-09-16T22:06:12;5.15;;;4.45;;
34184;SDS011;20454;48.100;11.776;2022-09-16T22:08:42;5.07;;;3.83;;
34184;SDS011;20454;48.100;11.776;2022-09-16T22:11:10;5.05;;;4.65;;
34184;SDS011;20454;48.100;11.776;2022-09-16T22:13:39;4.43;;;4.03;;
34184;SDS011;20454;48.100;11.776;2022-09-16T22:16:06;5.40;;;4.97;;
34184;SDS011;20454;48.100;11.776;2022-09-16T22:18:33;4.35;;;4.05;;
34184;SDS011;20454;48.100;11.776;2022-09-16T22:21:05;4.05;;;3.65;;
34184;SDS011;20454;48.100;11.776;2022-09-16T22:23:34;5.95;;;5.03;;
34184;SDS011;20454;48.100;11.776;2022-09-16T22:26:11;3.83;;;3.53;;
34184;SDS011;20454;48.100;11.776;2022-09-16T22:28:39;4.63;;;4.32;;
34184;SDS011;20454;48.100;11.776;2022-09-16T22:33:38;5.97;;;5.43;;
34184;SDS011;20454;48.100;11.776;2022-09-16T22:36:06;4.28;;;3.88;;
34184;SDS011;20454;48.100;11.776;2022-09-16T22:38:44;5.25;;;4.80;;
34184;SDS011;20454;48.100;11.776;2022-09-16T22:41:12;6.40;;;5.85;;
34184;SDS011;20454;48.100;11.776;2022-09-16T22:43:39;5.40;;;4.95;;
34184;SDS011;20454;48.100;11.776;2022-09-16T22:46:09;5.65;;;5.07;;
34184;SDS011;20454;48.100;11.776;2022-09-16T22:48:42;5.13;;;4.72;;
34184;SDS011;20454;48.100;11.776;2022-09-16T22:51:09;5.57;;;5.18;;
34184;SDS011;20454;48.100;11.776;2022-09-16T22:53:37;10.40;;;7.97;;
34184;SDS011;20454;48.100;11.776;2022-09-16T22:56:05;6.97;;;6.28;;
34184;SDS011;20454;48.100;11.776;2022-09-16T22:58:35;5.10;;;4.80;;
34184;SDS011;20454;48.100;11.776;2022-09-16T23:01:23;5.55;;;5.10;;
34184;SDS011;20454;48.100;11.776;2022-09-16T23:03:50;5.78;;;5.10;;
34184;SDS011;20454;48.100;11.776;2022-09-16T23:06:20;4.72;;;4.40;;
34184;SDS011;20454;48.100;11.776;2022-09-16T23:08:46;4.10;;;3.80;;
34184;SDS011;20454;48.100;11.776;2022-09-16T23:11:16;5.55;;;4.72;;
34184;SDS011;20454;48.100;11.776;2022-09-16T23:13:44;4.53;;;4.22;;
34184;SDS011;20454;48.100;11.776;2022-09-16T23:16:16;7.13;;;5.05;;
34184;SDS011;20454;48.100;11.776;2022-09-16T23:18:45;6.47;;;4.70;;
34184;SDS011;20454;48.100;11.776;2022-09-16T23:21:14;4.32;;;3.72;;
34184;SDS011;20454;48.100;11.776;2022-09-16T23:23:43;8.25;;;5.13;;
34184;SDS011;20454;48.100;11.776;2022-09-16T23:26:16;4.82;;;4.43;;
34184;SDS011;20454;48.100;11.776;2022-09-16T23:28:52;5.32;;;3.70;;
34184;SDS011;20454;48.100;11.776;2022-09-16T23:31:21;3.83;;;3.58;;
34184;SDS011;20454;48.100;11.776;2022-09-16T23:33:50;5.88;;;4.70;;
34184;SDS011;20454;48.100;11.776;2022-09-16T23:36:17;3.95;;;3.65;;
34184;SDS011;20454;48.100;11.776;2022-09-16T23:38:44;4.43;;;3.15;;
34184;SDS011;20454;48.100;11.776;2022-09-16T23:41:12;4.45;;;4.15;;
34184;SDS011;20454;48.100;11.776;2022-09-16T23:43:43;4.28;;;3.97;;
34184;SDS011;20454;48.100;11.776;2022-09-16T23:46:11;3.92;;;3.58;;
34184;SDS011;20454;48.100;11.776;2022-09-16T23:48:40;5.63;;;4.30;;
34184;SDS011;20454;48.100;11.776;2022-09-16T23:51:09;5.20;;;4.47;;
34184;SDS011;20454;48.100;11.776;2022-09-16T23:53:36;4.03;;;3.63;;
34184;SDS011;20454;48.100;11.776;2022-09-16T23:56:07;7.20;;;4.70;;
34184;SDS011;20454;48.100;11.776;2022-09-16T23:58:35;6.43;;;3.70;;
